Airfield :
LOGIN :

Register | Disclaimer

   EN    FR    IT 

 










Legend :    VFR   Marginal VFR   IFR   Intensive IFR   Very Intensive IFR
Visi :
Ceiling :
>= 8 km
>= 3000ft
5 to 8 km
1000 to 3000 ft
1500m to 5 km
500 to 1000 ft
800 to 1500m
200 to 500 ft
< 800m
< 200 ft
Symbols :   Thunderstorms  Fog  Heavy snow  Heavy precipitations  Wind > 20 kt
SIGMETs :     Misc.  Thunderstorms  Icing  Turbulence  Mountain Waves  Volcanic Ashes







- Airport Elevation : 1516 ft
- IATA code : AGB


EDMA - Augsburg

CURRENT METAR :
  • 260720Z 24007KT 9999 SCT021 SCT056 BKN074 10/06 Q1018

EXPIRED METARs :
  • 260650Z 25007KT 9999 FEW021 BKN051 09/05 Q1018
  • 260620Z 26007KT 9999 BKN044 09/05 Q1018
  • 260550Z 27007KT 9999 BKN045 09/05 Q1018
  • 260520Z 28012KT 9999 FEW027 BKN042 09/04 Q1018
  • 260450Z 28011KT 9999 -RA FEW032 BKN039 09/05 Q1018

TAF TAF EDMA
Valid from the 26 at 06:00 until the 26 at 15:00 UTC


260500Z 2606/2615 27010KT 9999 SCT025 BKN040
TEMPO 2611/2615 27015G25KT
No reported NOTAMs for that airfield.



MET'MAP, your aeronautical weather chart ! - Copyright ORBIFLY December 2007 - Disclaimer

ORBIFLY MET'MAP TEAM :

Programming & Development : Alexandra Zaïnal
Concept & Development : Baudouin d'Aumeries
Co-Development & Prog : Marc-Olivier Méhu
Technical & hardware support : Manuel Goepfert

Contact : metmap@orbifly.com




SOURCES & CREDITS :

   NOAA